createdAt,value
2019-01-31T00:02:21.234Z,99752.19
2019-01-31T00:05:12.880Z,99752.37
2019-01-31T00:08:16.144Z,99746.10
2019-01-31T00:10:52.580Z,99752.31
2019-01-31T00:13:34.917Z,99740.27
2019-01-31T00:16:55.322Z,99746.30
2019-01-31T00:19:46.482Z,99754.27
2019-01-31T00:22:42.326Z,99745.56
2019-01-31T00:25:30.685Z,99744.59
2019-01-31T00:28:24.950Z,99747.72
2019-01-31T00:31:27.968Z,99748.13
2019-01-31T00:34:39.447Z,99742.73
2019-01-31T00:37:24.809Z,99739.02
2019-01-31T00:40:23.586Z,99738.73
2019-01-31T00:43:12.442Z,99740.73
2019-01-31T00:46:16.059Z,99742.82
2019-01-31T00:49:07.130Z,99735.00
2019-01-31T00:51:49.511Z,99732.88
2019-01-31T00:55:00.888Z,99746.39
2019-01-31T00:57:58.629Z,99742.73
2019-01-31T01:00:49.696Z,99740.33
2019-01-31T01:03:32.107Z,99739.36
2019-01-31T01:06:20.669Z,99747.14
2019-01-31T01:09:07.777Z,99745.66
2019-01-31T01:12:10.878Z,99755.88
2019-01-31T01:15:11.616Z,99755.48
2019-01-31T01:17:48.161Z,99748.73
2019-01-31T01:20:33.586Z,99759.19
2019-01-31T01:23:40.201Z,99756.55
2019-01-31T01:26:27.864Z,99756.72
2019-01-31T01:29:23.910Z,99748.76
2019-01-31T01:32:00.398Z,99748.34
2019-01-31T01:35:00.941Z,99746.00
2019-01-31T01:38:04.310Z,99742.20
2019-01-31T01:40:55.594Z,99742.52
2019-01-31T01:44:12.155Z,99737.89
2019-01-31T01:46:57.788Z,99733.80
2019-01-31T01:49:49.259Z,99727.07
2019-01-31T01:52:46.574Z,99728.65
2019-01-31T01:55:42.786Z,99726.58
2019-01-31T01:58:25.006Z,99734.16
2019-01-31T02:01:10.125Z,99721.36
2019-01-31T02:04:04.872Z,99722.67
2019-01-31T02:06:50.172Z,99726.33
2019-01-31T02:09:44.511Z,99720.60
2019-01-31T02:12:38.236Z,99723.61
2019-01-31T02:15:23.325Z,99708.93
2019-01-31T02:18:11.141Z,99715.23
2019-01-31T02:20:59.601Z,99709.19
2019-01-31T02:23:36.075Z,99705.35
2019-01-31T02:26:34.461Z,99705.50
2019-01-31T02:29:19.500Z,99698.63
2019-01-31T02:32:14.334Z,99695.63
2019-01-31T02:35:02.592Z,99695.08
2019-01-31T02:37:39.328Z,99691.39
2019-01-31T02:40:30.891Z,99690.76
2019-01-31T02:43:26.878Z,99688.83
2019-01-31T02:46:17.807Z,99683.47
2019-01-31T02:49:12.592Z,99688.27
2019-01-31T02:52:03.861Z,99680.97
2019-01-31T02:54:52.066Z,99675.23
2019-01-31T02:58:09.637Z,99687.51
2019-01-31T03:00:52.064Z,99692.04
2019-01-31T03:03:43.534Z,99696.92
2019-01-31T03:06:37.857Z,99685.62
2019-01-31T03:09:34.128Z,99695.59
2019-01-31T03:12:30.902Z,99698.04
2019-01-31T03:15:22.767Z,99699.69
2019-01-31T03:18:17.434Z,99703.18
2019-01-31T03:21:08.991Z,99704.36
2019-01-31T03:24:20.375Z,99708.77
2019-01-31T03:27:02.591Z,99710.96
2019-01-31T03:30:01.454Z,99714.84
2019-01-31T03:32:46.633Z,99713.09
2019-01-31T03:35:28.720Z,99722.73
2019-01-31T03:38:26.349Z,99714.36
2019-01-31T03:41:23.906Z,99715.78
2019-01-31T03:44:11.512Z,99714.86
2019-01-31T03:46:50.675Z,99714.92
2019-01-31T03:49:35.667Z,99719.39
2019-01-31T03:52:12.252Z,99710.05
2019-01-31T03:55:17.638Z,99699.87
2019-01-31T03:58:15.176Z,99705.53
2019-01-31T04:01:24.882Z,99705.58
2019-01-31T04:04:16.506Z,99700.34
2019-01-31T04:06:48.211Z,99702.32
2019-01-31T04:09:19.923Z,99708.46
2019-01-31T04:11:51.600Z,99709.97
2019-01-31T04:14:23.291Z,99710.88
2019-01-31T04:16:55.137Z,99712.98
2019-01-31T04:19:26.807Z,99705.45
2019-01-31T04:21:58.386Z,99699.79
2019-01-31T04:24:30.226Z,99696.30
2019-01-31T04:27:01.880Z,99694.17
2019-01-31T04:29:33.587Z,99696.87
2019-01-31T04:32:05.289Z,99696.47
2019-01-31T04:34:36.882Z,99693.83
2019-01-31T04:37:08.448Z,99693.33
2019-01-31T04:39:40.141Z,99699.11
2019-01-31T04:42:11.758Z,99700.10
2019-01-31T04:44:43.756Z,99706.93
2019-01-31T04:47:15.397Z,99698.13
2019-01-31T04:49:47.032Z,99699.81
2019-01-31T04:52:18.672Z,99695.69
2019-01-31T04:54:50.264Z,99694.36
2019-01-31T04:57:21.945Z,99696.47
2019-01-31T04:59:53.559Z,99702.23
2019-01-31T05:02:25.251Z,99701.41
2019-01-31T05:04:56.947Z,99693.95
2019-01-31T05:07:28.598Z,99682.10
2019-01-31T05:10:00.508Z,99695.42
2019-01-31T05:12:32.123Z,99692.97
2019-01-31T05:15:04.059Z,99698.82
2019-01-31T05:17:35.706Z,99700.75
2019-01-31T05:20:12.247Z,99706.53
2019-01-31T05:22:43.935Z,99705.13
2019-01-31T05:25:18.522Z,99710.02
2019-01-31T05:27:51.853Z,99713.34
2019-01-31T05:30:24.313Z,99719.46
2019-01-31T05:32:58.942Z,99716.34
2019-01-31T05:35:29.914Z,99722.61
2019-01-31T05:38:01.591Z,99723.31
2019-01-31T05:40:33.290Z,99725.06
2019-01-31T05:43:05.243Z,99727.34
2019-01-31T05:45:36.839Z,99725.06
2019-01-31T05:48:09.076Z,99728.49
2019-01-31T05:50:40.678Z,99721.83
2019-01-31T05:53:13.081Z,99730.89
2019-01-31T05:55:45.871Z,99729.02
2019-01-31T05:58:17.958Z,99732.09
2019-01-31T06:00:49.757Z,99722.97
2019-01-31T06:03:24.772Z,99725.48
2019-01-31T06:05:56.741Z,99729.69
2019-01-31T06:08:29.364Z,99730.67
2019-01-31T06:11:07.647Z,99739.69
2019-01-31T06:13:34.562Z,99739.59
2019-01-31T06:16:06.984Z,99740.79
2019-01-31T06:18:38.848Z,99748.38
2019-01-31T06:21:13.677Z,99739.22
2019-01-31T06:23:44.370Z,99745.95
2019-01-31T06:26:15.984Z,99754.16
2019-01-31T06:28:47.652Z,99746.38
2019-01-31T06:31:19.270Z,99757.13
2019-01-31T06:33:50.989Z,99765.45
2019-01-31T06:36:24.064Z,99765.89
2019-01-31T06:38:55.714Z,99768.64
2019-01-31T06:41:27.476Z,99762.28
2019-01-31T06:43:59.143Z,99759.20
2019-01-31T06:46:30.854Z,99756.08
2019-01-31T06:49:02.450Z,99759.31
2019-01-31T06:51:34.108Z,99758.95
2019-01-31T06:54:07.789Z,99764.52
2019-01-31T06:56:39.620Z,99773.83
2019-01-31T06:59:11.288Z,99768.91
2019-01-31T07:01:42.932Z,99770.70
2019-01-31T07:04:14.479Z,99763.77
2019-01-31T07:06:46.031Z,99768.91
2019-01-31T07:09:17.622Z,99762.91
2019-01-31T07:11:49.322Z,99765.89
2019-01-31T07:14:20.949Z,99771.70
2019-01-31T07:16:52.538Z,99765.89
2019-01-31T07:19:24.205Z,99756.66
2019-01-31T07:21:55.797Z,99767.73
2019-01-31T07:24:27.438Z,99766.45
2019-01-31T07:26:59.039Z,99763.61
2019-01-31T07:29:30.721Z,99752.11
2019-01-31T07:32:03.672Z,99758.32
2019-01-31T07:34:35.490Z,99756.36
2019-01-31T07:37:07.174Z,99763.45
2019-01-31T07:39:41.976Z,99767.16
2019-01-31T07:42:13.695Z,99771.65
2019-01-31T07:44:45.360Z,99761.81
2019-01-31T07:47:17.048Z,99776.27
2019-01-31T07:49:48.672Z,99769.18
2019-01-31T07:52:20.318Z,99769.92
2019-01-31T07:54:51.888Z,99759.92
2019-01-31T07:57:23.634Z,99758.19
2019-01-31T07:59:55.378Z,99763.38
2019-01-31T08:02:27.117Z,99767.70
2019-01-31T08:04:58.778Z,99771.84
2019-01-31T08:07:30.348Z,99772.22
2019-01-31T08:10:01.912Z,99776.27
2019-01-31T08:12:34.683Z,99772.64
2019-01-31T08:15:11.341Z,99773.89
2019-01-31T08:17:43.000Z,99773.72
2019-01-31T08:20:21.495Z,99773.37
2019-01-31T08:22:53.180Z,99783.84
2019-01-31T08:25:25.700Z,99781.61
2019-01-31T08:27:57.323Z,99779.14
2019-01-31T08:30:38.925Z,99783.83
2019-01-31T08:33:10.543Z,99787.37
2019-01-31T08:35:42.113Z,99789.66
2019-01-31T08:38:13.715Z,99782.81
2019-01-31T08:40:45.300Z,99790.52
2019-01-31T08:43:16.978Z,99795.41
2019-01-31T08:45:48.616Z,99789.45
2019-01-31T08:48:20.176Z,99798.59
2019-01-31T08:50:51.862Z,99796.16
2019-01-31T08:53:23.524Z,99807.69
2019-01-31T08:55:55.256Z,99794.50
2019-01-31T08:58:26.959Z,99799.17
2019-01-31T09:00:58.698Z,99800.16
2019-01-31T09:03:31.314Z,99799.16
2019-01-31T09:06:02.895Z,99797.14
2019-01-31T09:08:34.742Z,99804.39
2019-01-31T09:11:09.966Z,99805.27
2019-01-31T09:13:41.665Z,99803.03
2019-01-31T09:16:13.404Z,99800.17
2019-01-31T09:18:45.316Z,99791.97
2019-01-31T09:21:27.672Z,99794.91
2019-01-31T09:24:15.840Z,99793.88
2019-01-31T09:27:06.729Z,99798.61
2019-01-31T09:30:13.406Z,99805.00
2019-01-31T09:33:21.452Z,99806.03
2019-01-31T09:36:13.063Z,99808.34
2019-01-31T09:39:13.237Z,99804.93
2019-01-31T09:42:04.685Z,99803.95
2019-01-31T09:45:09.699Z,99812.50
2019-01-31T09:48:00.903Z,99809.92
2019-01-31T09:51:07.300Z,99801.28
2019-01-31T09:53:52.850Z,99796.63
2019-01-31T09:56:38.124Z,99795.91
2019-01-31T09:59:20.557Z,99801.30
2019-01-31T10:02:24.254Z,99794.23
2019-01-31T10:05:00.865Z,99798.53
2019-01-31T10:07:53.906Z,99791.39
2019-01-31T10:10:56.008Z,99795.73
2019-01-31T10:13:44.662Z,99790.33
2019-01-31T10:16:43.569Z,99780.12
2019-01-31T10:19:26.068Z,99775.82
2019-01-31T10:22:22.177Z,99776.39
2019-01-31T10:25:19.186Z,99764.17
2019-01-31T10:28:16.463Z,99762.50
2019-01-31T10:31:12.201Z,99760.52
2019-01-31T10:33:57.456Z,99758.52
2019-01-31T10:36:37.100Z,99759.91
2019-01-31T10:39:37.948Z,99757.23
2019-01-31T10:42:20.415Z,99753.11
2019-01-31T10:45:25.790Z,99754.17
2019-01-31T10:48:33.909Z,99748.52
2019-01-31T10:51:10.477Z,99744.81
2019-01-31T10:54:07.694Z,99753.13
2019-01-31T10:56:58.583Z,99752.45
2019-01-31T10:59:57.569Z,99745.95
2019-01-31T11:03:13.356Z,99740.45
2019-01-31T11:06:01.994Z,99738.98
2019-01-31T11:08:47.292Z,99735.08
2019-01-31T11:11:30.307Z,99739.06
2019-01-31T11:14:12.583Z,99739.05
2019-01-31T11:17:16.013Z,99733.77
2019-01-31T11:19:55.480Z,99741.09
2019-01-31T11:22:56.248Z,99733.81
2019-01-31T11:25:56.540Z,99732.91
2019-01-31T11:28:41.539Z,99740.75
2019-01-31T11:31:45.223Z,99729.28
2019-01-31T11:34:33.085Z,99729.49
2019-01-31T11:37:17.250Z,99726.63
2019-01-31T11:40:11.553Z,99718.89
2019-01-31T11:43:11.871Z,99721.31
2019-01-31T11:46:14.494Z,99712.49
2019-01-31T11:49:05.650Z,99716.81
2019-01-31T11:52:09.137Z,99716.41
2019-01-31T11:55:04.780Z,99704.95
2019-01-31T11:58:01.640Z,99714.42
2019-01-31T12:00:33.876Z,99714.78
2019-01-31T12:03:05.573Z,99717.83
2019-01-31T12:05:37.273Z,99717.09
2019-01-31T12:08:08.956Z,99716.83
2019-01-31T12:10:40.545Z,99712.59
2019-01-31T12:13:22.718Z,99711.17
2019-01-31T12:15:45.455Z,99707.18
2019-01-31T12:18:17.026Z,99710.94
2019-01-31T12:20:48.577Z,99707.87
2019-01-31T12:23:20.235Z,99708.28
2019-01-31T12:25:51.913Z,99719.34
2019-01-31T12:28:23.551Z,99712.53
2019-01-31T12:30:55.296Z,99713.94
2019-01-31T12:33:27.003Z,99709.09
2019-01-31T12:35:58.627Z,99705.44
2019-01-31T12:38:36.790Z,99706.99
2019-01-31T12:41:04.892Z,99713.08
2019-01-31T12:43:36.595Z,99707.59
2019-01-31T12:46:08.294Z,99705.81
2019-01-31T12:48:40.008Z,99705.28
2019-01-31T12:51:11.586Z,99705.03
2019-01-31T12:53:43.159Z,99701.86
2019-01-31T12:56:14.875Z,99701.19
2019-01-31T12:58:46.448Z,99696.58
2019-01-31T13:01:18.173Z,99700.07
2019-01-31T13:03:49.761Z,99699.38
2019-01-31T13:06:21.423Z,99694.08
2019-01-31T13:08:53.948Z,99693.45
2019-01-31T13:11:31.888Z,99700.08
2019-01-31T13:14:03.906Z,99685.20
2019-01-31T13:16:39.948Z,99690.56
2019-01-31T13:19:12.791Z,99693.45
2019-01-31T13:21:44.371Z,99699.28
2019-01-31T13:24:16.018Z,99689.05
2019-01-31T13:26:47.644Z,99684.63
2019-01-31T13:29:19.197Z,99687.01
2019-01-31T13:31:50.815Z,99679.98
2019-01-31T13:34:22.427Z,99678.28
2019-01-31T13:36:54.083Z,99678.95
2019-01-31T13:39:25.730Z,99681.84
2019-01-31T13:41:57.361Z,99683.84
2019-01-31T13:44:31.274Z,99687.62
2019-01-31T13:47:03.033Z,99686.80
2019-01-31T13:49:36.832Z,99689.14
2019-01-31T13:52:12.024Z,99692.53
2019-01-31T13:54:43.686Z,99701.53
2019-01-31T13:57:15.325Z,99703.47
2019-01-31T13:59:47.084Z,99703.31
2019-01-31T14:02:18.797Z,99693.39
2019-01-31T14:04:50.399Z,99695.07
2019-01-31T14:07:27.580Z,99691.20
2019-01-31T14:09:58.828Z,99692.16
2019-01-31T14:12:31.922Z,99697.91
2019-01-31T14:15:04.612Z,99693.77
2019-01-31T14:17:36.254Z,99693.92
2019-01-31T14:20:12.719Z,99696.76
2019-01-31T14:22:44.363Z,99704.89
2019-01-31T14:25:16.065Z,99701.55
2019-01-31T14:27:50.027Z,99697.45
2019-01-31T14:30:38.340Z,99695.91
2019-01-31T14:33:11.664Z,99704.37
2019-01-31T14:35:43.302Z,99695.56
2019-01-31T14:38:14.913Z,99694.30
2019-01-31T14:40:46.591Z,99698.06
2019-01-31T14:43:18.456Z,99695.15
2019-01-31T14:45:50.111Z,99693.81
2019-01-31T14:48:22.745Z,99689.78
2019-01-31T14:50:55.503Z,99699.34
2019-01-31T14:53:27.184Z,99692.66
2019-01-31T14:55:58.804Z,99692.94
2019-01-31T14:58:30.474Z,99691.77
2019-01-31T15:01:02.075Z,99693.32
2019-01-31T15:03:33.748Z,99690.73
2019-01-31T15:06:05.367Z,99690.33
2019-01-31T15:08:38.025Z,99692.35
2019-01-31T15:11:09.756Z,99698.16
2019-01-31T15:13:42.436Z,99698.47
2019-01-31T15:16:14.077Z,99699.28
2019-01-31T15:18:45.656Z,99693.67
2019-01-31T15:21:17.337Z,99695.00
2019-01-31T15:23:50.577Z,99704.67
2019-01-31T15:26:22.197Z,99704.48
2019-01-31T15:28:53.792Z,99702.57
2019-01-31T15:31:25.395Z,99710.84
2019-01-31T15:33:57.114Z,99707.70
2019-01-31T15:36:28.772Z,99705.86
2019-01-31T15:39:00.389Z,99713.41
2019-01-31T15:41:33.407Z,99715.29
2019-01-31T15:44:05.154Z,99724.62
2019-01-31T15:46:36.866Z,99726.36
2019-01-31T15:49:08.508Z,99725.95
2019-01-31T15:51:40.163Z,99729.02
2019-01-31T15:54:14.446Z,99730.05
2019-01-31T15:56:47.078Z,99730.84
2019-01-31T15:59:18.828Z,99732.17
2019-01-31T16:01:50.557Z,99731.69
2019-01-31T16:04:22.211Z,99734.70
2019-01-31T16:06:53.854Z,99732.38
2019-01-31T16:09:25.561Z,99737.78
2019-01-31T16:11:59.732Z,99736.09
2019-01-31T16:14:30.704Z,99729.02
2019-01-31T16:17:02.385Z,99733.95
2019-01-31T16:19:34.147Z,99738.14
2019-01-31T16:22:06.613Z,99743.22
2019-01-31T16:24:38.264Z,99737.19
2019-01-31T16:27:09.834Z,99735.98
2019-01-31T16:29:41.563Z,99741.75
2019-01-31T16:32:13.715Z,99732.78
2019-01-31T16:34:47.474Z,99736.45
2019-01-31T16:37:19.159Z,99740.25
2019-01-31T16:39:50.868Z,99743.48
2019-01-31T16:42:22.511Z,99734.36
2019-01-31T16:44:54.290Z,99733.52
2019-01-31T16:47:27.527Z,99728.84
2019-01-31T16:49:59.166Z,99729.48
2019-01-31T16:52:30.883Z,99738.36
2019-01-31T16:55:02.654Z,99734.19
2019-01-31T16:57:34.380Z,99726.55
2019-01-31T17:00:16.203Z,99727.73
2019-01-31T17:02:47.879Z,99722.11
2019-01-31T17:05:22.704Z,99730.26
2019-01-31T17:07:54.419Z,99729.52
2019-01-31T17:10:27.194Z,99726.11
2019-01-31T17:12:58.889Z,99728.09
2019-01-31T17:15:32.265Z,99726.24
2019-01-31T17:18:03.934Z,99727.98
2019-01-31T17:20:39.147Z,99727.16
2019-01-31T17:23:10.855Z,99726.43
2019-01-31T17:25:42.453Z,99732.61
2019-01-31T17:28:14.100Z,99728.20
2019-01-31T17:30:45.774Z,99732.69
2019-01-31T17:33:17.366Z,99730.86
2019-01-31T17:35:48.956Z,99727.37
2019-01-31T17:38:20.619Z,99725.13
2019-01-31T17:40:52.283Z,99724.61
2019-01-31T17:43:23.863Z,99722.97
2019-01-31T17:45:55.807Z,99733.80
2019-01-31T17:48:27.436Z,99724.51
2019-01-31T17:50:59.119Z,99728.08
2019-01-31T17:53:30.851Z,99725.69
2019-01-31T17:56:02.504Z,99732.44
2019-01-31T17:58:35.227Z,99730.31
2019-01-31T18:01:07.879Z,99729.36
2019-01-31T18:03:39.464Z,99734.46
2019-01-31T18:06:11.197Z,99739.48
2019-01-31T18:08:42.955Z,99732.27
2019-01-31T18:11:14.618Z,99735.34
2019-01-31T18:13:46.277Z,99735.34
2019-01-31T18:16:17.895Z,99735.20
2019-01-31T18:18:49.550Z,99725.17
2019-01-31T18:21:21.169Z,99733.33
2019-01-31T18:23:52.779Z,99730.18
2019-01-31T18:26:24.430Z,99726.76
2019-01-31T18:28:56.031Z,99733.50
2019-01-31T18:31:27.676Z,99732.72
2019-01-31T18:33:59.344Z,99736.23
2019-01-31T18:36:30.993Z,99733.16
2019-01-31T18:39:03.083Z,99732.48
2019-01-31T18:41:34.729Z,99730.43
2019-01-31T18:44:06.386Z,99727.19
2019-01-31T18:46:38.034Z,99726.87
2019-01-31T18:49:09.680Z,99728.69
2019-01-31T18:51:41.329Z,99732.49
2019-01-31T18:54:15.719Z,99731.81
2019-01-31T18:56:47.716Z,99735.15
2019-01-31T18:59:19.296Z,99727.08
2019-01-31T19:01:50.920Z,99726.20
2019-01-31T19:04:22.709Z,99728.86
2019-01-31T19:06:54.416Z,99729.82
2019-01-31T19:09:26.106Z,99731.15
2019-01-31T19:11:57.891Z,99733.41
2019-01-31T19:14:29.561Z,99738.62
2019-01-31T19:17:03.401Z,99740.78
2019-01-31T19:19:35.345Z,99737.06
2019-01-31T19:22:10.608Z,99738.46
2019-01-31T19:24:43.717Z,99741.60
2019-01-31T19:27:15.563Z,99741.75
2019-01-31T19:29:47.420Z,99748.06
2019-01-31T19:32:19.333Z,99741.51
2019-01-31T19:34:51.013Z,99740.60
2019-01-31T19:37:22.678Z,99743.38
2019-01-31T19:39:54.400Z,99746.18
2019-01-31T19:42:26.016Z,99741.66
2019-01-31T19:44:58.579Z,99744.77
2019-01-31T19:47:30.362Z,99740.05
2019-01-31T19:50:01.993Z,99741.31
2019-01-31T19:52:34.663Z,99744.30
2019-01-31T19:55:17.912Z,99742.72
2019-01-31T19:57:51.522Z,99735.67
2019-01-31T20:00:27.298Z,99737.13
2019-01-31T20:02:58.978Z,99739.09
2019-01-31T20:05:32.133Z,99737.14
2019-01-31T20:08:13.976Z,99734.05
2019-01-31T20:10:48.050Z,99734.47
2019-01-31T20:13:19.793Z,99732.79
2019-01-31T20:15:51.603Z,99729.59
2019-01-31T20:18:23.449Z,99722.04
2019-01-31T20:20:55.134Z,99725.20
2019-01-31T20:23:26.775Z,99725.25
2019-01-31T20:25:58.476Z,99719.06
2019-01-31T20:28:30.207Z,99716.33
2019-01-31T20:31:01.829Z,99714.86
2019-01-31T20:33:33.508Z,99721.90
2019-01-31T20:36:05.253Z,99719.40
2019-01-31T20:38:36.853Z,99725.45
2019-01-31T20:41:08.477Z,99711.29
2019-01-31T20:43:40.138Z,99715.27
2019-01-31T20:46:11.806Z,99715.69
2019-01-31T20:48:43.524Z,99718.27
2019-01-31T20:51:15.181Z,99714.70
2019-01-31T20:53:46.887Z,99719.16
2019-01-31T20:56:18.698Z,99720.08
2019-01-31T20:58:50.297Z,99711.55
2019-01-31T21:01:22.018Z,99716.79
2019-01-31T21:03:53.758Z,99715.48
2019-01-31T21:06:25.402Z,99710.98
2019-01-31T21:08:57.210Z,99717.11
2019-01-31T21:11:28.886Z,99717.90
2019-01-31T21:14:00.508Z,99716.63
2019-01-31T21:16:32.177Z,99718.35
2019-01-31T21:19:03.780Z,99725.99
2019-01-31T21:21:35.436Z,99724.41
2019-01-31T21:24:07.191Z,99716.31
2019-01-31T21:26:38.936Z,99721.99
2019-01-31T21:29:10.603Z,99716.81
2019-01-31T21:31:44.261Z,99723.31
2019-01-31T21:34:17.480Z,99721.09
2019-01-31T21:36:49.355Z,99726.73
2019-01-31T21:39:20.988Z,99716.05
2019-01-31T21:41:52.673Z,99717.37
2019-01-31T21:44:24.365Z,99723.08
2019-01-31T21:47:02.793Z,99720.84
2019-01-31T21:49:30.771Z,99720.09
2019-01-31T21:52:02.389Z,99728.63
2019-01-31T21:54:34.052Z,99727.27
2019-01-31T21:57:05.714Z,99728.53
2019-01-31T21:59:37.333Z,99730.34
2019-01-31T22:02:09.060Z,99732.57
2019-01-31T22:04:40.709Z,99720.59
2019-01-31T22:07:12.364Z,99716.17
2019-01-31T22:09:44.012Z,99724.97
2019-01-31T22:12:15.663Z,99730.34
2019-01-31T22:14:47.603Z,99732.57
2019-01-31T22:17:19.309Z,99751.64
2019-01-31T22:19:50.869Z,99751.71
2019-01-31T22:22:22.492Z,99754.92
2019-01-31T22:24:54.186Z,99754.94
2019-01-31T22:27:25.850Z,99751.30
2019-01-31T22:29:57.469Z,99750.47
2019-01-31T22:32:29.129Z,99752.43
2019-01-31T22:35:00.799Z,99752.15
2019-01-31T22:37:32.620Z,99749.08
2019-01-31T22:40:06.067Z,99752.32
2019-01-31T22:42:37.787Z,99747.86
2019-01-31T22:45:16.618Z,99759.73
2019-01-31T22:47:48.230Z,99754.79
2019-01-31T22:50:25.082Z,99747.94
2019-01-31T22:52:56.752Z,99746.59
2019-01-31T22:55:28.345Z,99739.42
2019-01-31T22:58:00.029Z,99742.00
2019-01-31T23:00:49.934Z,99731.34
2019-01-31T23:03:21.621Z,99734.29
2019-01-31T23:05:53.242Z,99733.84
2019-01-31T23:08:24.933Z,99731.98
2019-01-31T23:10:56.582Z,99729.38
2019-01-31T23:13:28.239Z,99726.68
2019-01-31T23:15:59.972Z,99721.35
2019-01-31T23:18:31.564Z,99712.83
2019-01-31T23:21:03.235Z,99713.66
2019-01-31T23:23:34.815Z,99711.59
2019-01-31T23:26:07.255Z,99706.16
2019-01-31T23:28:38.937Z,99700.41
2019-01-31T23:31:10.642Z,99703.13
2019-01-31T23:33:42.258Z,99706.56
2019-01-31T23:36:13.939Z,99710.59
2019-01-31T23:38:45.579Z,99704.75
2019-01-31T23:41:17.225Z,99690.97
2019-01-31T23:43:48.873Z,99690.97
2019-01-31T23:46:20.579Z,99699.87
2019-01-31T23:48:52.199Z,99693.23
2019-01-31T23:51:23.760Z,99690.55
2019-01-31T23:53:55.512Z,99691.21
2019-01-31T23:56:27.114Z,99685.98
2019-01-31T23:58:58.696Z,99686.55
